sensor_id;sensor_type;location;lat;lon;timestamp;P1;durP1;ratioP1;P2;durP2;ratioP2
18399;SDS011;9326;49.468;11.008;2023-07-31T05:02:41;2.87;;;1.60;;
18399;SDS011;9326;49.468;11.008;2023-07-31T05:05:08;4.53;;;2.10;;
18399;SDS011;9326;49.468;11.008;2023-07-31T05:07:35;4.73;;;1.67;;
18399;SDS011;9326;49.468;11.008;2023-07-31T05:10:03;4.17;;;1.60;;
18399;SDS011;9326;49.468;11.008;2023-07-31T05:12:30;4.40;;;1.93;;
18399;SDS011;9326;49.468;11.008;2023-07-31T05:14:57;3.07;;;1.73;;
18399;SDS011;9326;49.468;11.008;2023-07-31T05:17:24;1.70;;;1.50;;
18399;SDS011;9326;49.468;11.008;2023-07-31T05:19:52;4.60;;;1.70;;
18399;SDS011;9326;49.468;11.008;2023-07-31T05:22:19;4.40;;;1.60;;
18399;SDS011;9326;49.468;11.008;2023-07-31T05:24:46;2.13;;;1.50;;
18399;SDS011;9326;49.468;11.008;2023-07-31T05:27:14;3.90;;;1.40;;
18399;SDS011;9326;49.468;11.008;2023-07-31T05:29:43;2.10;;;1.60;;
18399;SDS011;9326;49.468;11.008;2023-07-31T05:32:10;4.47;;;1.93;;
18399;SDS011;9326;49.468;11.008;2023-07-31T05:34:37;4.47;;;1.97;;
18399;SDS011;9326;49.468;11.008;2023-07-31T05:37:06;2.77;;;1.37;;
18399;SDS011;9326;49.468;11.008;2023-07-31T05:39:33;3.27;;;1.60;;
18399;SDS011;9326;49.468;11.008;2023-07-31T05:42:00;3.73;;;1.70;;
18399;SDS011;9326;49.468;11.008;2023-07-31T05:44:27;7.33;;;1.77;;
18399;SDS011;9326;49.468;11.008;2023-07-31T05:46:55;4.27;;;1.70;;
18399;SDS011;9326;49.468;11.008;2023-07-31T05:49:22;2.13;;;1.70;;
18399;SDS011;9326;49.468;11.008;2023-07-31T05:51:49;4.67;;;1.70;;
18399;SDS011;9326;49.468;11.008;2023-07-31T05:54:17;3.07;;;1.80;;
18399;SDS011;9326;49.468;11.008;2023-07-31T05:56:46;4.77;;;1.70;;
18399;SDS011;9326;49.468;11.008;2023-07-31T05:59:17;3.33;;;1.87;;
18399;SDS011;9326;49.468;11.008;2023-07-31T06:01:58;3.47;;;1.80;;
18399;SDS011;9326;49.468;11.008;2023-07-31T06:04:25;6.23;;;2.00;;
18399;SDS011;9326;49.468;11.008;2023-07-31T06:06:53;5.07;;;2.03;;
18399;SDS011;9326;49.468;11.008;2023-07-31T06:09:21;6.30;;;2.20;;
18399;SDS011;9326;49.468;11.008;2023-07-31T06:11:49;4.20;;;2.10;;
18399;SDS011;9326;49.468;11.008;2023-07-31T06:14:16;3.57;;;2.00;;
18399;SDS011;9326;49.468;11.008;2023-07-31T06:16:43;6.37;;;2.57;;
18399;SDS011;9326;49.468;11.008;2023-07-31T06:19:10;4.53;;;2.40;;
18399;SDS011;9326;49.468;11.008;2023-07-31T06:21:37;4.20;;;1.90;;
18399;SDS011;9326;49.468;11.008;2023-07-31T06:24:07;4.13;;;2.00;;
18399;SDS011;9326;49.468;11.008;2023-07-31T06:26:35;6.87;;;2.10;;
18399;SDS011;9326;49.468;11.008;2023-07-31T06:29:03;5.17;;;2.03;;
18399;SDS011;9326;49.468;11.008;2023-07-31T06:31:30;7.63;;;2.20;;
18399;SDS011;9326;49.468;11.008;2023-07-31T06:33:57;4.90;;;2.17;;
18399;SDS011;9326;49.468;11.008;2023-07-31T06:36:24;5.57;;;2.10;;
18399;SDS011;9326;49.468;11.008;2023-07-31T06:38:51;5.60;;;2.33;;
18399;SDS011;9326;49.468;11.008;2023-07-31T06:41:20;5.20;;;1.93;;
18399;SDS011;9326;49.468;11.008;2023-07-31T06:43:48;5.50;;;2.17;;
18399;SDS011;9326;49.468;11.008;2023-07-31T06:46:16;7.17;;;2.47;;
18399;SDS011;9326;49.468;11.008;2023-07-31T06:49:08;5.97;;;2.10;;
18399;SDS011;9326;49.468;11.008;2023-07-31T06:51:41;5.00;;;2.33;;
18399;SDS011;9326;49.468;11.008;2023-07-31T06:54:09;6.23;;;2.10;;
18399;SDS011;9326;49.468;11.008;2023-07-31T06:56:36;4.00;;;2.27;;
18399;SDS011;9326;49.468;11.008;2023-07-31T06:59:05;4.07;;;2.10;;
18399;SDS011;9326;49.468;11.008;2023-07-31T07:01:32;4.00;;;2.30;;
18399;SDS011;9326;49.468;11.008;2023-07-31T07:03:59;3.90;;;2.10;;
18399;SDS011;9326;49.468;11.008;2023-07-31T07:06:30;4.77;;;1.70;;
18399;SDS011;9326;49.468;11.008;2023-07-31T07:08:59;3.70;;;1.93;;
18399;SDS011;9326;49.468;11.008;2023-07-31T07:11:28;3.90;;;2.10;;
18399;SDS011;9326;49.468;11.008;2023-07-31T07:13:55;3.83;;;1.93;;
18399;SDS011;9326;49.468;11.008;2023-07-31T07:16:28;4.07;;;1.87;;
18399;SDS011;9326;49.468;11.008;2023-07-31T07:18:55;3.97;;;1.90;;
18399;SDS011;9326;49.468;11.008;2023-07-31T07:21:22;4.43;;;2.60;;
18399;SDS011;9326;49.468;11.008;2023-07-31T07:23:50;3.43;;;1.70;;
18399;SDS011;9326;49.468;11.008;2023-07-31T07:26:17;5.23;;;2.10;;
18399;SDS011;9326;49.468;11.008;2023-07-31T07:28:44;3.70;;;1.83;;
18399;SDS011;9326;49.468;11.008;2023-07-31T07:31:11;2.27;;;1.83;;
18399;SDS011;9326;49.468;11.008;2023-07-31T07:33:39;4.97;;;2.13;;
18399;SDS011;9326;49.468;11.008;2023-07-31T07:36:06;4.97;;;2.00;;
18399;SDS011;9326;49.468;11.008;2023-07-31T07:38:34;5.00;;;2.00;;
18399;SDS011;9326;49.468;11.008;2023-07-31T07:41:04;3.77;;;2.10;;
18399;SDS011;9326;49.468;11.008;2023-07-31T07:43:31;3.23;;;1.90;;
18399;SDS011;9326;49.468;11.008;2023-07-31T07:45:58;3.97;;;2.40;;
18399;SDS011;9326;49.468;11.008;2023-07-31T07:48:25;4.90;;;2.10;;
18399;SDS011;9326;49.468;11.008;2023-07-31T07:50:53;4.07;;;1.90;;
18399;SDS011;9326;49.468;11.008;2023-07-31T07:53:20;5.40;;;2.27;;
18399;SDS011;9326;49.468;11.008;2023-07-31T07:55:47;2.50;;;1.90;;
18399;SDS011;9326;49.468;11.008;2023-07-31T07:58:14;6.67;;;2.70;;
18399;SDS011;9326;49.468;11.008;2023-07-31T08:00:41;5.83;;;2.27;;
18399;SDS011;9326;49.468;11.008;2023-07-31T08:03:08;4.03;;;2.03;;
18399;SDS011;9326;49.468;11.008;2023-07-31T08:05:35;4.27;;;2.20;;
18399;SDS011;9326;49.468;11.008;2023-07-31T08:08:04;4.13;;;1.90;;
18399;SDS011;9326;49.468;11.008;2023-07-31T08:10:31;4.97;;;2.10;;
18399;SDS011;9326;49.468;11.008;2023-07-31T08:12:58;5.13;;;2.30;;
18399;SDS011;9326;49.468;11.008;2023-07-31T08:15:25;4.80;;;1.83;;
18399;SDS011;9326;49.468;11.008;2023-07-31T08:17:52;5.87;;;1.97;;
18399;SDS011;9326;49.468;11.008;2023-07-31T08:20:19;5.97;;;2.20;;
18399;SDS011;9326;49.468;11.008;2023-07-31T08:22:46;6.43;;;2.20;;
18399;SDS011;9326;49.468;11.008;2023-07-31T08:25:15;4.37;;;2.10;;
18399;SDS011;9326;49.468;11.008;2023-07-31T08:27:42;4.70;;;2.00;;
18399;SDS011;9326;49.468;11.008;2023-07-31T08:30:11;4.37;;;2.27;;
18399;SDS011;9326;49.468;11.008;2023-07-31T08:32:38;5.50;;;2.20;;
18399;SDS011;9326;49.468;11.008;2023-07-31T08:35:06;5.20;;;2.30;;
18399;SDS011;9326;49.468;11.008;2023-07-31T08:37:33;3.77;;;1.90;;
18399;SDS011;9326;49.468;11.008;2023-07-31T08:40:01;5.57;;;2.07;;
18399;SDS011;9326;49.468;11.008;2023-07-31T08:42:30;3.93;;;2.10;;
18399;SDS011;9326;49.468;11.008;2023-07-31T08:44:57;3.67;;;1.90;;
18399;SDS011;9326;49.468;11.008;2023-07-31T08:47:26;4.67;;;2.20;;
18399;SDS011;9326;49.468;11.008;2023-07-31T08:49:54;4.80;;;1.80;;
18399;SDS011;9326;49.468;11.008;2023-07-31T08:52:21;4.57;;;2.00;;
18399;SDS011;9326;49.468;11.008;2023-07-31T08:54:48;4.40;;;2.40;;
18399;SDS011;9326;49.468;11.008;2023-07-31T08:57:15;4.30;;;2.30;;
18399;SDS011;9326;49.468;11.008;2023-07-31T08:59:44;3.57;;;2.13;;
18399;SDS011;9326;49.468;11.008;2023-07-31T09:02:12;4.63;;;2.40;;
18399;SDS011;9326;49.468;11.008;2023-07-31T09:04:43;4.10;;;1.97;;
18399;SDS011;9326;49.468;11.008;2023-07-31T09:07:10;3.87;;;2.10;;
18399;SDS011;9326;49.468;11.008;2023-07-31T09:09:38;3.60;;;1.93;;
18399;SDS011;9326;49.468;11.008;2023-07-31T09:12:05;5.27;;;2.23;;
18399;SDS011;9326;49.468;11.008;2023-07-31T09:14:33;6.50;;;2.37;;
18399;SDS011;9326;49.468;11.008;2023-07-31T09:17:02;4.33;;;2.23;;
18399;SDS011;9326;49.468;11.008;2023-07-31T09:19:32;4.57;;;2.30;;
18399;SDS011;9326;49.468;11.008;2023-07-31T09:21:59;4.40;;;2.30;;
18399;SDS011;9326;49.468;11.008;2023-07-31T09:24:26;5.07;;;2.20;;
18399;SDS011;9326;49.468;11.008;2023-07-31T09:26:54;4.30;;;2.40;;
18399;SDS011;9326;49.468;11.008;2023-07-31T09:29:22;5.23;;;2.30;;
18399;SDS011;9326;49.468;11.008;2023-07-31T09:31:50;5.03;;;2.20;;
18399;SDS011;9326;49.468;11.008;2023-07-31T09:34:18;5.83;;;2.80;;
18399;SDS011;9326;49.468;11.008;2023-07-31T09:36:46;5.33;;;2.20;;
18399;SDS011;9326;49.468;11.008;2023-07-31T09:39:13;3.60;;;2.03;;
18399;SDS011;9326;49.468;11.008;2023-07-31T09:41:41;5.00;;;2.30;;
18399;SDS011;9326;49.468;11.008;2023-07-31T09:44:08;2.90;;;1.90;;
18399;SDS011;9326;49.468;11.008;2023-07-31T09:46:36;4.40;;;2.43;;
18399;SDS011;9326;49.468;11.008;2023-07-31T09:49:03;4.67;;;2.57;;
18399;SDS011;9326;49.468;11.008;2023-07-31T09:51:32;10.63;;;2.47;;
18399;SDS011;9326;49.468;11.008;2023-07-31T09:54:03;7.60;;;2.70;;
18399;SDS011;9326;49.468;11.008;2023-07-31T09:56:30;6.53;;;2.40;;
18399;SDS011;9326;49.468;11.008;2023-07-31T09:58:59;9.97;;;2.30;;
18399;SDS011;9326;49.468;11.008;2023-07-31T10:01:26;7.60;;;2.50;;
18399;SDS011;9326;49.468;11.008;2023-07-31T10:03:53;11.67;;;2.40;;
18399;SDS011;9326;49.468;11.008;2023-07-31T10:06:20;6.60;;;2.10;;
18399;SDS011;9326;49.468;11.008;2023-07-31T10:08:49;5.63;;;2.13;;
18399;SDS011;9326;49.468;11.008;2023-07-31T10:11:18;6.00;;;2.00;;
18399;SDS011;9326;49.468;11.008;2023-07-31T10:13:46;3.40;;;2.00;;
18399;SDS011;9326;49.468;11.008;2023-07-31T10:16:13;3.97;;;1.87;;
18399;SDS011;9326;49.468;11.008;2023-07-31T10:18:41;4.20;;;2.20;;
18399;SDS011;9326;49.468;11.008;2023-07-31T10:21:09;3.93;;;1.90;;
18399;SDS011;9326;49.468;11.008;2023-07-31T10:23:36;3.80;;;2.00;;
18399;SDS011;9326;49.468;11.008;2023-07-31T10:26:05;2.70;;;2.00;;
18399;SDS011;9326;49.468;11.008;2023-07-31T10:28:34;3.90;;;1.97;;
18399;SDS011;9326;49.468;11.008;2023-07-31T10:31:01;3.50;;;1.93;;
18399;SDS011;9326;49.468;11.008;2023-07-31T10:33:29;5.13;;;1.73;;
18399;SDS011;9326;49.468;11.008;2023-07-31T10:36:11;4.43;;;2.03;;
18399;SDS011;9326;49.468;11.008;2023-07-31T10:38:39;5.13;;;2.20;;
18399;SDS011;9326;49.468;11.008;2023-07-31T10:41:11;2.67;;;2.10;;
18399;SDS011;9326;49.468;11.008;2023-07-31T10:43:38;3.57;;;2.30;;
18399;SDS011;9326;49.468;11.008;2023-07-31T10:46:08;3.83;;;2.00;;
18399;SDS011;9326;49.468;11.008;2023-07-31T10:48:35;2.37;;;1.90;;
18399;SDS011;9326;49.468;11.008;2023-07-31T10:51:06;3.50;;;2.20;;
18399;SDS011;9326;49.468;11.008;2023-07-31T10:53:34;4.17;;;2.43;;
18399;SDS011;9326;49.468;11.008;2023-07-31T10:56:02;4.03;;;2.10;;
18399;SDS011;9326;49.468;11.008;2023-07-31T10:58:31;4.57;;;2.37;;
18399;SDS011;9326;49.468;11.008;2023-07-31T11:00:59;8.10;;;2.90;;
18399;SDS011;9326;49.468;11.008;2023-07-31T11:03:27;10.87;;;4.83;;
18399;SDS011;9326;49.468;11.008;2023-07-31T11:05:59;14.57;;;6.50;;
18399;SDS011;9326;49.468;11.008;2023-07-31T11:08:28;3.50;;;2.33;;
18399;SDS011;9326;49.468;11.008;2023-07-31T11:11:04;3.80;;;2.37;;
18399;SDS011;9326;49.468;11.008;2023-07-31T11:13:33;5.67;;;2.30;;
18399;SDS011;9326;49.468;11.008;2023-07-31T11:16:01;3.33;;;2.30;;
18399;SDS011;9326;49.468;11.008;2023-07-31T11:18:28;4.27;;;2.40;;
18399;SDS011;9326;49.468;11.008;2023-07-31T11:20:55;3.07;;;2.20;;
18399;SDS011;9326;49.468;11.008;2023-07-31T11:23:22;4.20;;;2.30;;
18399;SDS011;9326;49.468;11.008;2023-07-31T11:25:50;3.13;;;2.20;;
18399;SDS011;9326;49.468;11.008;2023-07-31T11:28:17;4.37;;;2.30;;
18399;SDS011;9326;49.468;11.008;2023-07-31T11:30:46;3.57;;;2.37;;
18399;SDS011;9326;49.468;11.008;2023-07-31T11:33:13;5.30;;;2.40;;
18399;SDS011;9326;49.468;11.008;2023-07-31T11:35:43;2.93;;;2.30;;
18399;SDS011;9326;49.468;11.008;2023-07-31T11:38:10;5.87;;;3.30;;
18399;SDS011;9326;49.468;11.008;2023-07-31T11:40:40;5.50;;;2.60;;
18399;SDS011;9326;49.468;11.008;2023-07-31T11:43:08;6.23;;;2.50;;
18399;SDS011;9326;49.468;11.008;2023-07-31T11:45:36;3.30;;;2.30;;
18399;SDS011;9326;49.468;11.008;2023-07-31T11:48:05;4.77;;;2.43;;
18399;SDS011;9326;49.468;11.008;2023-07-31T11:50:33;4.77;;;2.40;;
18399;SDS011;9326;49.468;11.008;2023-07-31T11:53:00;3.07;;;2.50;;
18399;SDS011;9326;49.468;11.008;2023-07-31T11:55:30;4.37;;;2.70;;
18399;SDS011;9326;49.468;11.008;2023-07-31T11:57:57;4.17;;;2.50;;
18399;SDS011;9326;49.468;11.008;2023-07-31T12:00:25;3.63;;;2.50;;
18399;SDS011;9326;49.468;11.008;2023-07-31T12:02:52;3.07;;;2.50;;
18399;SDS011;9326;49.468;11.008;2023-07-31T12:05:21;3.73;;;2.40;;
18399;SDS011;9326;49.468;11.008;2023-07-31T12:07:49;6.17;;;2.37;;
18399;SDS011;9326;49.468;11.008;2023-07-31T12:10:26;4.27;;;2.37;;
18399;SDS011;9326;49.468;11.008;2023-07-31T12:13:01;4.40;;;2.40;;
18399;SDS011;9326;49.468;11.008;2023-07-31T12:15:29;3.23;;;2.30;;
18399;SDS011;9326;49.468;11.008;2023-07-31T12:17:57;5.00;;;2.50;;
18399;SDS011;9326;49.468;11.008;2023-07-31T12:20:25;4.17;;;2.50;;
18399;SDS011;9326;49.468;11.008;2023-07-31T12:22:55;3.83;;;2.23;;
18399;SDS011;9326;49.468;11.008;2023-07-31T12:25:23;4.33;;;2.73;;
18399;SDS011;9326;49.468;11.008;2023-07-31T12:27:55;5.97;;;2.70;;
18399;SDS011;9326;49.468;11.008;2023-07-31T12:30:28;3.77;;;2.50;;
18399;SDS011;9326;49.468;11.008;2023-07-31T12:32:55;3.27;;;2.50;;
18399;SDS011;9326;49.468;11.008;2023-07-31T12:35:23;3.70;;;2.50;;
18399;SDS011;9326;49.468;11.008;2023-07-31T12:37:51;4.30;;;2.80;;
18399;SDS011;9326;49.468;11.008;2023-07-31T12:40:18;3.70;;;2.80;;
18399;SDS011;9326;49.468;11.008;2023-07-31T12:42:45;3.57;;;2.70;;
18399;SDS011;9326;49.468;11.008;2023-07-31T12:45:13;4.53;;;2.60;;
18399;SDS011;9326;49.468;11.008;2023-07-31T12:47:41;4.03;;;2.60;;
18399;SDS011;9326;49.468;11.008;2023-07-31T12:50:08;5.20;;;2.73;;
18399;SDS011;9326;49.468;11.008;2023-07-31T12:52:35;4.30;;;2.67;;
18399;SDS011;9326;49.468;11.008;2023-07-31T12:55:04;4.40;;;2.77;;
18399;SDS011;9326;49.468;11.008;2023-07-31T12:57:31;4.53;;;2.33;;
18399;SDS011;9326;49.468;11.008;2023-07-31T12:59:58;3.50;;;2.20;;
18399;SDS011;9326;49.468;11.008;2023-07-31T13:02:25;5.40;;;2.70;;
18399;SDS011;9326;49.468;11.008;2023-07-31T13:04:52;5.67;;;2.47;;
18399;SDS011;9326;49.468;11.008;2023-07-31T13:07:21;10.67;;;3.47;;
18399;SDS011;9326;49.468;11.008;2023-07-31T13:09:48;3.60;;;2.53;;
18399;SDS011;9326;49.468;11.008;2023-07-31T13:12:17;4.47;;;2.40;;
18399;SDS011;9326;49.468;11.008;2023-07-31T13:14:44;3.97;;;2.50;;
18399;SDS011;9326;49.468;11.008;2023-07-31T13:17:11;4.13;;;2.60;;
18399;SDS011;9326;49.468;11.008;2023-07-31T13:19:38;4.87;;;2.40;;
18399;SDS011;9326;49.468;11.008;2023-07-31T13:22:05;2.50;;;2.17;;
18399;SDS011;9326;49.468;11.008;2023-07-31T13:24:32;3.47;;;2.57;;
18399;SDS011;9326;49.468;11.008;2023-07-31T13:26:59;4.17;;;2.60;;
18399;SDS011;9326;49.468;11.008;2023-07-31T13:29:30;3.37;;;2.47;;
18399;SDS011;9326;49.468;11.008;2023-07-31T13:35:14;3.70;;;2.40;;
18399;SDS011;9326;49.468;11.008;2023-07-31T13:37:49;4.53;;;2.50;;
18399;SDS011;9326;49.468;11.008;2023-07-31T13:40:21;4.40;;;2.90;;
18399;SDS011;9326;49.468;11.008;2023-07-31T13:42:48;4.03;;;2.60;;
18399;SDS011;9326;49.468;11.008;2023-07-31T13:45:21;3.93;;;2.53;;
18399;SDS011;9326;49.468;11.008;2023-07-31T13:47:56;3.60;;;2.30;;
18399;SDS011;9326;49.468;11.008;2023-07-31T13:50:26;5.33;;;2.57;;
18399;SDS011;9326;49.468;11.008;2023-07-31T13:52:56;6.33;;;2.70;;
18399;SDS011;9326;49.468;11.008;2023-07-31T13:55:29;4.80;;;2.50;;
18399;SDS011;9326;49.468;11.008;2023-07-31T13:57:56;3.70;;;2.50;;
18399;SDS011;9326;49.468;11.008;2023-07-31T14:00:25;4.30;;;2.43;;
18399;SDS011;9326;49.468;11.008;2023-07-31T14:02:58;5.13;;;2.80;;
18399;SDS011;9326;49.468;11.008;2023-07-31T14:05:25;4.00;;;2.63;;
18399;SDS011;9326;49.468;11.008;2023-07-31T14:07:54;3.97;;;2.47;;
18399;SDS011;9326;49.468;11.008;2023-07-31T14:10:21;4.33;;;2.77;;
18399;SDS011;9326;49.468;11.008;2023-07-31T14:12:51;3.50;;;2.53;;
18399;SDS011;9326;49.468;11.008;2023-07-31T14:15:18;4.40;;;3.23;;
18399;SDS011;9326;49.468;11.008;2023-07-31T14:17:46;5.63;;;2.80;;
18399;SDS011;9326;49.468;11.008;2023-07-31T14:20:13;3.87;;;2.53;;
18399;SDS011;9326;49.468;11.008;2023-07-31T14:22:40;3.43;;;2.53;;
18399;SDS011;9326;49.468;11.008;2023-07-31T14:25:07;4.10;;;2.70;;
18399;SDS011;9326;49.468;11.008;2023-07-31T14:27:35;3.67;;;2.50;;
18399;SDS011;9326;49.468;11.008;2023-07-31T14:30:02;4.10;;;2.60;;
18399;SDS011;9326;49.468;11.008;2023-07-31T14:32:29;4.40;;;2.93;;
18399;SDS011;9326;49.468;11.008;2023-07-31T14:34:58;4.37;;;2.60;;
18399;SDS011;9326;49.468;11.008;2023-07-31T14:37:25;4.00;;;2.57;;
18399;SDS011;9326;49.468;11.008;2023-07-31T14:39:52;5.87;;;2.80;;
18399;SDS011;9326;49.468;11.008;2023-07-31T14:42:21;2.83;;;2.50;;
18399;SDS011;9326;49.468;11.008;2023-07-31T14:44:48;3.47;;;2.67;;
18399;SDS011;9326;49.468;11.008;2023-07-31T14:47:17;3.60;;;2.60;;
18399;SDS011;9326;49.468;11.008;2023-07-31T14:49:46;4.10;;;2.60;;
18399;SDS011;9326;49.468;11.008;2023-07-31T14:52:15;3.13;;;2.53;;
18399;SDS011;9326;49.468;11.008;2023-07-31T14:54:42;4.27;;;2.70;;
18399;SDS011;9326;49.468;11.008;2023-07-31T14:57:10;5.10;;;2.80;;
18399;SDS011;9326;49.468;11.008;2023-07-31T14:59:38;5.13;;;2.60;;
18399;SDS011;9326;49.468;11.008;2023-07-31T15:02:06;4.33;;;2.70;;
18399;SDS011;9326;49.468;11.008;2023-07-31T15:04:37;5.17;;;2.50;;
18399;SDS011;9326;49.468;11.008;2023-07-31T15:07:11;5.47;;;2.67;;
18399;SDS011;9326;49.468;11.008;2023-07-31T15:10:13;3.57;;;2.67;;
18399;SDS011;9326;49.468;11.008;2023-07-31T15:13:07;5.03;;;2.53;;
18399;SDS011;9326;49.468;11.008;2023-07-31T15:18:37;4.57;;;2.87;;
18399;SDS011;9326;49.468;11.008;2023-07-31T15:21:18;4.73;;;2.70;;
18399;SDS011;9326;49.468;11.008;2023-07-31T15:24:10;4.93;;;2.90;;
18399;SDS011;9326;49.468;11.008;2023-07-31T15:26:39;4.40;;;2.73;;
18399;SDS011;9326;49.468;11.008;2023-07-31T15:29:08;4.87;;;2.93;;
18399;SDS011;9326;49.468;11.008;2023-07-31T15:31:43;5.37;;;3.17;;
18399;SDS011;9326;49.468;11.008;2023-07-31T15:34:13;3.57;;;2.60;;
18399;SDS011;9326;49.468;11.008;2023-07-31T15:36:40;4.60;;;3.00;;
18399;SDS011;9326;49.468;11.008;2023-07-31T15:39:07;3.97;;;2.80;;
18399;SDS011;9326;49.468;11.008;2023-07-31T15:41:35;5.90;;;2.90;;
18399;SDS011;9326;49.468;11.008;2023-07-31T15:44:04;6.23;;;2.70;;
18399;SDS011;9326;49.468;11.008;2023-07-31T15:46:31;4.07;;;2.47;;
18399;SDS011;9326;49.468;11.008;2023-07-31T15:48:59;5.27;;;2.63;;
18399;SDS011;9326;49.468;11.008;2023-07-31T15:51:26;4.67;;;2.60;;
18399;SDS011;9326;49.468;11.008;2023-07-31T15:53:53;5.83;;;2.80;;
18399;SDS011;9326;49.468;11.008;2023-07-31T15:56:20;3.73;;;2.70;;
18399;SDS011;9326;49.468;11.008;2023-07-31T15:58:47;4.87;;;3.10;;
18399;SDS011;9326;49.468;11.008;2023-07-31T16:01:20;7.40;;;2.80;;
18399;SDS011;9326;49.468;11.008;2023-07-31T16:03:47;4.43;;;2.50;;
18399;SDS011;9326;49.468;11.008;2023-07-31T16:06:14;5.63;;;2.70;;
18399;SDS011;9326;49.468;11.008;2023-07-31T16:08:41;3.87;;;2.97;;
18399;SDS011;9326;49.468;11.008;2023-07-31T16:11:09;4.93;;;2.73;;
18399;SDS011;9326;49.468;11.008;2023-07-31T16:13:37;3.70;;;2.87;;
18399;SDS011;9326;49.468;11.008;2023-07-31T16:21:49;3.90;;;2.50;;
18399;SDS011;9326;49.468;11.008;2023-07-31T16:24:17;3.60;;;2.70;;
18399;SDS011;9326;49.468;11.008;2023-07-31T16:26:45;3.40;;;2.87;;
18399;SDS011;9326;49.468;11.008;2023-07-31T16:29:12;3.67;;;2.73;;
18399;SDS011;9326;49.468;11.008;2023-07-31T16:31:39;3.73;;;2.83;;
18399;SDS011;9326;49.468;11.008;2023-07-31T16:34:06;5.00;;;2.60;;
18399;SDS011;9326;49.468;11.008;2023-07-31T16:36:34;5.40;;;2.50;;
18399;SDS011;9326;49.468;11.008;2023-07-31T16:39:02;4.50;;;2.60;;
18399;SDS011;9326;49.468;11.008;2023-07-31T16:41:29;3.40;;;2.60;;
18399;SDS011;9326;49.468;11.008;2023-07-31T16:43:57;3.57;;;2.63;;
18399;SDS011;9326;49.468;11.008;2023-07-31T16:46:24;4.73;;;2.93;;
18399;SDS011;9326;49.468;11.008;2023-07-31T16:48:53;4.23;;;2.63;;
18399;SDS011;9326;49.468;11.008;2023-07-31T16:51:22;3.90;;;2.70;;
18399;SDS011;9326;49.468;11.008;2023-07-31T16:53:49;4.90;;;2.70;;
18399;SDS011;9326;49.468;11.008;2023-07-31T16:56:17;4.07;;;2.77;;
18399;SDS011;9326;49.468;11.008;2023-07-31T16:58:47;5.47;;;3.10;;
18399;SDS011;9326;49.468;11.008;2023-07-31T17:01:14;4.37;;;3.00;;
18399;SDS011;9326;49.468;11.008;2023-07-31T17:03:41;4.07;;;2.60;;
18399;SDS011;9326;49.468;11.008;2023-07-31T17:06:08;7.27;;;2.80;;
18399;SDS011;9326;49.468;11.008;2023-07-31T17:08:36;3.57;;;3.13;;
18399;SDS011;9326;49.468;11.008;2023-07-31T17:11:03;4.97;;;3.37;;
18399;SDS011;9326;49.468;11.008;2023-07-31T17:13:32;5.77;;;3.03;;
18399;SDS011;9326;49.468;11.008;2023-07-31T17:15:59;4.90;;;2.70;;
18399;SDS011;9326;49.468;11.008;2023-07-31T17:18:26;4.77;;;3.00;;
18399;SDS011;9326;49.468;11.008;2023-07-31T17:20:53;5.97;;;2.80;;
18399;SDS011;9326;49.468;11.008;2023-07-31T17:23:21;5.97;;;2.90;;
18399;SDS011;9326;49.468;11.008;2023-07-31T17:25:49;6.87;;;3.13;;
18399;SDS011;9326;49.468;11.008;2023-07-31T17:28:16;5.20;;;2.90;;
18399;SDS011;9326;49.468;11.008;2023-07-31T17:30:44;7.20;;;3.27;;
18399;SDS011;9326;49.468;11.008;2023-07-31T17:33:12;4.53;;;2.67;;
18399;SDS011;9326;49.468;11.008;2023-07-31T17:35:39;6.27;;;3.33;;
18399;SDS011;9326;49.468;11.008;2023-07-31T17:38:06;4.63;;;2.63;;
18399;SDS011;9326;49.468;11.008;2023-07-31T17:40:33;5.90;;;2.77;;
18399;SDS011;9326;49.468;11.008;2023-07-31T17:43:02;4.30;;;3.13;;
18399;SDS011;9326;49.468;11.008;2023-07-31T17:45:30;4.40;;;3.07;;
18399;SDS011;9326;49.468;11.008;2023-07-31T17:47:58;3.97;;;2.80;;
18399;SDS011;9326;49.468;11.008;2023-07-31T17:50:25;3.87;;;2.67;;
18399;SDS011;9326;49.468;11.008;2023-07-31T17:52:52;4.30;;;2.90;;
18399;SDS011;9326;49.468;11.008;2023-07-31T17:55:22;4.17;;;2.90;;
18399;SDS011;9326;49.468;11.008;2023-07-31T17:57:49;7.07;;;3.83;;
18399;SDS011;9326;49.468;11.008;2023-07-31T18:00:16;6.53;;;2.97;;
18399;SDS011;9326;49.468;11.008;2023-07-31T18:02:44;5.27;;;2.90;;
18399;SDS011;9326;49.468;11.008;2023-07-31T18:05:13;4.53;;;3.00;;
18399;SDS011;9326;49.468;11.008;2023-07-31T18:07:41;6.77;;;3.33;;
18399;SDS011;9326;49.468;11.008;2023-07-31T18:10:08;4.17;;;2.80;;
18399;SDS011;9326;49.468;11.008;2023-07-31T18:12:35;5.07;;;2.97;;
18399;SDS011;9326;49.468;11.008;2023-07-31T18:15:03;4.73;;;2.90;;
18399;SDS011;9326;49.468;11.008;2023-07-31T18:17:31;4.00;;;3.10;;
18399;SDS011;9326;49.468;11.008;2023-07-31T18:19:58;6.30;;;3.33;;
18399;SDS011;9326;49.468;11.008;2023-07-31T18:22:27;3.73;;;2.93;;
18399;SDS011;9326;49.468;11.008;2023-07-31T18:24:56;4.57;;;2.70;;
18399;SDS011;9326;49.468;11.008;2023-07-31T18:27:23;5.97;;;3.20;;
18399;SDS011;9326;49.468;11.008;2023-07-31T18:29:50;5.77;;;3.20;;
18399;SDS011;9326;49.468;11.008;2023-07-31T18:32:17;4.40;;;3.00;;
18399;SDS011;9326;49.468;11.008;2023-07-31T18:34:44;4.73;;;3.10;;
18399;SDS011;9326;49.468;11.008;2023-07-31T18:37:11;5.70;;;3.03;;
18399;SDS011;9326;49.468;11.008;2023-07-31T18:39:40;3.97;;;2.93;;
18399;SDS011;9326;49.468;11.008;2023-07-31T18:42:07;5.93;;;2.97;;
18399;SDS011;9326;49.468;11.008;2023-07-31T18:44:34;5.10;;;3.60;;
18399;SDS011;9326;49.468;11.008;2023-07-31T18:47:01;5.63;;;3.27;;
18399;SDS011;9326;49.468;11.008;2023-07-31T18:49:28;5.30;;;3.30;;
18399;SDS011;9326;49.468;11.008;2023-07-31T18:51:55;6.57;;;3.50;;
18399;SDS011;9326;49.468;11.008;2023-07-31T18:54:22;3.90;;;2.83;;
18399;SDS011;9326;49.468;11.008;2023-07-31T18:56:50;4.20;;;3.20;;
18399;SDS011;9326;49.468;11.008;2023-07-31T18:59:17;4.23;;;3.13;;
18399;SDS011;9326;49.468;11.008;2023-07-31T19:01:45;4.77;;;3.13;;
18399;SDS011;9326;49.468;11.008;2023-07-31T19:04:12;5.40;;;3.20;;
18399;SDS011;9326;49.468;11.008;2023-07-31T19:06:39;4.03;;;2.93;;
18399;SDS011;9326;49.468;11.008;2023-07-31T19:09:09;3.87;;;3.00;;
18399;SDS011;9326;49.468;11.008;2023-07-31T19:11:36;5.17;;;3.00;;
18399;SDS011;9326;49.468;11.008;2023-07-31T19:14:05;4.30;;;3.07;;
18399;SDS011;9326;49.468;11.008;2023-07-31T19:16:32;5.57;;;3.20;;
18399;SDS011;9326;49.468;11.008;2023-07-31T19:18:59;6.93;;;3.30;;
18399;SDS011;9326;49.468;11.008;2023-07-31T19:21:26;6.43;;;3.77;;
18399;SDS011;9326;49.468;11.008;2023-07-31T19:23:54;5.53;;;3.83;;
18399;SDS011;9326;49.468;11.008;2023-07-31T19:26:21;5.53;;;3.10;;
18399;SDS011;9326;49.468;11.008;2023-07-31T19:28:48;4.47;;;3.20;;
18399;SDS011;9326;49.468;11.008;2023-07-31T19:31:16;4.03;;;3.10;;
18399;SDS011;9326;49.468;11.008;2023-07-31T19:33:43;5.13;;;3.37;;
18399;SDS011;9326;49.468;11.008;2023-07-31T19:36:10;6.57;;;3.60;;
18399;SDS011;9326;49.468;11.008;2023-07-31T19:38:37;6.60;;;3.47;;
18399;SDS011;9326;49.468;11.008;2023-07-31T19:41:07;4.40;;;2.83;;
18399;SDS011;9326;49.468;11.008;2023-07-31T19:43:35;6.30;;;3.20;;
18399;SDS011;9326;49.468;11.008;2023-07-31T19:46:02;4.60;;;2.90;;
18399;SDS011;9326;49.468;11.008;2023-07-31T19:48:30;5.87;;;3.50;;
18399;SDS011;9326;49.468;11.008;2023-07-31T19:50:57;3.97;;;3.27;;
18399;SDS011;9326;49.468;11.008;2023-07-31T19:53:24;6.03;;;3.33;;
18399;SDS011;9326;49.468;11.008;2023-07-31T19:55:51;6.07;;;3.40;;
18399;SDS011;9326;49.468;11.008;2023-07-31T19:58:18;5.33;;;3.33;;
18399;SDS011;9326;49.468;11.008;2023-07-31T20:00:45;4.93;;;3.73;;
18399;SDS011;9326;49.468;11.008;2023-07-31T20:03:12;7.20;;;3.43;;
18399;SDS011;9326;49.468;11.008;2023-07-31T20:05:40;5.87;;;3.43;;
18399;SDS011;9326;49.468;11.008;2023-07-31T20:08:08;6.33;;;3.83;;